Latest Coastal Weather Observations for Samuel Hill

IDQ60701

Issued at 6:32 pm EST Saturday 13 August 2022 (issued every 10 minutes, with the page automatically refreshed every 10 minutes)

About coastal observations | Map of coastal stations | Coastal observations for QLD | Marine services | Other Formats
Station Details ID: 033308 Name: SAMUEL HILL AERO Lat: -22.74 Lon: 150.66 Height: 31.0 m
Data from the previous 72 hours. | See also: Recent months at Samuel Hill
Date/Time
EST
Wind Sea
Height
m
Swell Vis
km
Cloud Weather Temp
°C
Press
MSL
hPa
Rain since
9am
mm
Dir  Spd
kts
Gust
kts
Height
m
Period
s
Dir
13/06:30pm CALM 0 0 - - - - 10 Partly cloudy - 19.5 1015.0 0.6
13/06:00pm N 3 4 - - - - 10 Cloudy - 20.1 1014.6 0.6
13/05:30pm NNE 5 6 - - - - 10 Partly cloudy - 20.7 1014.4 0.6
13/05:00pm NNE 5 6 - - - - 10 Partly cloudy - 21.2 1014.4 0.6
13/04:30pm ENE 6 8 - - - - 10 Partly cloudy - 21.6 1014.3 0.6
13/04:00pm ENE 5 7 - - - - 10 Partly cloudy - 22.0 1014.0 0.6
13/03:30pm NE 6 10 - - - - 10 Partly cloudy - 22.8 1014.0 0.6
13/03:00pm ENE 7 11 - - - - 10 Mostly clear Rain 23.0 1014.1 0.6
13/02:30pm E 4 6 - - - - 10 Partly cloudy - 21.5 1014.4 0.6
13/02:24pm NE 3 4 - - - - 10 Partly cloudy - 21.6 1014.5 0.6
13/02:11pm WNW 5 9 - - - - 7 Partly cloudy - 21.4 1014.6 0.4
13/02:00pm WSW 4 7 - - - - 10 Partly cloudy - 22.5 1014.7 0.2
13/01:30pm NNW 7 10 - - - - 10 Partly cloudy - 23.9 1014.8 0.2
13/01:00pm N 7 10 - - - - 10 Partly cloudy - 24.0 1015.1 0.2
13/12:30pm NNE 5 9 - - - - 10 Partly cloudy - 23.6 1015.6 0.2
13/12:00pm NNW 4 8 - - - - 10 Cloudy - 24.4 1016.1 0.2
13/11:30am N 5 8 - - - - 10 Partly cloudy - 23.3 1016.6 0.2
13/11:00am N 3 7 - - - - 10 Partly cloudy - 24.0 1017.1 0.2
13/10:30am N 5 9 - - - - 10 Partly cloudy - 23.6 1017.4 0.2
13/10:00am N 5 7 - - - - 10 Partly cloudy - 22.7 1017.7 0.0
13/09:30am N 4 6 - - - - 10 Partly cloudy - 21.7 1017.7 0.0
13/09:00am SW 1 3 - - - - 10 - - 20.6 1017.6 0.4
13/08:35am CALM 0 0 - - - - 10 Partly cloudy - 18.2 1017.6 0.4
13/08:30am CALM 0 0 - - - - 10 Partly cloudy - 17.9 1017.5 0.4
13/08:00am SSW 3 6 - - - - 10 Partly cloudy - 16.5 1017.2 0.4
13/07:44am CALM 0 0 - - - - 10 Partly cloudy - 15.6 1016.9 0.4
13/07:30am CALM 0 0 - - - - 10 Partly cloudy - 15.4 1016.9 0.4
13/07:10am CALM 0 0 - - - - 10 Partly cloudy - 14.6 1016.7 0.4
13/07:00am CALM 0 0 - - - - 5 Partly cloudy - 14.6 1016.7 0.4
13/06:54am CALM 0 0 - - - - 1 Partly cloudy - 14.5 1016.7 0.4
13/06:32am CALM 0 0 - - - - 1 Partly cloudy - 14.0 1016.7 0.4
13/06:30am CALM 0 0 - - - - 0.9 Partly cloudy - 14.1 1016.7 0.4
13/06:26am CALM 0 0 - - - - 0.9 Partly cloudy - 14.1 1016.7 0.4
13/06:18am CALM 0 0 - - - - 7 Partly cloudy - 14.1 1016.7 0.4
13/06:17am CALM 0 0 - - - - 10 Partly cloudy - 14.1 1016.7 0.4
13/06:00am CALM 0 0 - - - - 10 Cloudy - 14.6 1016.6 0.4
13/05:42am CALM 0 0 - - - - 10 Partly cloudy - 14.7 1016.5 0.4
13/05:31am CALM 0 0 - - - - 5 Partly cloudy - 14.9 1016.4 0.4
13/05:30am CALM 0 0 - - - - 5 Partly cloudy - 14.8 1016.4 0.4
13/05:00am CALM 0 0 - - - - 2 Cloudy - 14.5 1016.3 0.4
13/04:42am CALM 0 0 - - - - 1 Cloudy - 14.5 1015.9 0.4
13/04:30am CALM 0 0 - - - - 0.6 Cloudy - 14.7 1015.9 0.4
13/04:00am SW 1 3 - - - - 0.5 Partly cloudy - 15.1 1016.3 0.4
13/03:46am SW 3 4 - - - - 0.9 Partly cloudy - 15.2 1016.3 0.4
13/03:37am CALM 0 4 - - - - 1 Partly cloudy - 15.2 1016.4 0.4
13/03:30am CALM 0 0 - - - - 0.3 Partly cloudy - 15.2 1016.3 0.4
13/03:00am CALM 0 0 - - - - 0.5 Cloudy - 15.2 1016.6 0.4
13/02:49am CALM 0 0 - - - - 0.8 Partly cloudy - 15.2 1016.7 0.4
13/02:37am CALM 0 0 - - - - 0.8 Partly cloudy - 15.4 1017.0 0.4
13/02:36am CALM 0 0 - - - - 0.9 Partly cloudy - 15.4 1017.1 0.4
13/02:30am CALM 0 0 - - - - 1 Partly cloudy - 15.5 1017.2 0.4
13/02:09am CALM 0 0 - - - - 1 Partly cloudy - 15.6 1017.2 0.4
13/02:00am CALM 0 0 - - - - 0.8 Partly cloudy - 15.6 1017.1 0.4
13/01:59am CALM 0 0 - - - - 0.9 Partly cloudy - 15.5 1017.2 0.4
13/01:58am CALM 0 0 - - - - 1 Partly cloudy - 15.5 1017.2 0.4
13/01:30am CALM 0 0 - - - - 3 Partly cloudy - 15.8 1017.3 0.4
13/01:20am CALM 0 0 - - - - 7 - - 16.1 1017.7 0.4
13/01:00am CALM 0 3 - - - - 10 Partly cloudy - 16.7 1017.7 0.4
13/12:39am SW 3 3 - - - - 10 Partly cloudy - 17.1 1018.1 0.4
13/12:30am WSW 3 4 - - - - 9 Partly cloudy - 17.2 1018.3 0.4
13/12:00am CALM 0 0 - - - - 2 Cloudy Showers 16.9 1018.5 0.0
 
Date/Time
EST
Wind Sea
Height
m
Swell Vis
km
Cloud Weather Temp
°C
Press
MSL
hPa
Rain since
9am
mm
Dir  Spd
kts
Gust
kts
Height
m
Period
s
Dir
12/11:30pm CALM 0 0 - - - - 2 Partly cloudy - 16.9 1019.0 0.0
12/11:00pm CALM 0 1 - - - - 4 Partly cloudy - 17.0 1018.7 0.0
12/10:30pm CALM 0 0 - - - - 2 Cloudy - 16.7 1019.1 0.0
12/10:00pm CALM 0 0 - - - - 5 Partly cloudy - 16.8 1019.2 0.0
12/09:56pm CALM 0 0 - - - - 6 Partly cloudy - 16.8 1019.3 0.0
12/09:55pm CALM 0 0 - - - - 9 Partly cloudy - 16.8 1019.3 0.0
12/09:30pm CALM 0 0 - - - - 10 Partly cloudy - 16.8 1019.4 0.0
12/09:00pm CALM 0 0 - - - - 2 Cloudy - 16.9 1019.2 0.0
12/08:30pm S 2 3 - - - - 2 Partly cloudy - 16.9 1019.2 0.0
12/08:00pm CALM 0 0 - - - - 3 Cloudy - 16.6 1019.0 0.0
12/07:54pm CALM 0 0 - - - - 6 Cloudy - 16.6 1019.0 0.0
12/07:39pm CALM 0 0 - - - - 10 Cloudy - 16.6 1018.7 0.0
12/07:30pm CALM 0 0 - - - - 8 Cloudy - 16.6 1018.7 0.0
12/07:00pm CALM 0 3 - - - - 6 Partly cloudy - 16.9 1018.5 0.0
12/06:31pm CALM 0 3 - - - - 7 Partly cloudy - 17.3 1018.3 0.0
12/06:30pm CALM 0 3 - - - - 9 Partly cloudy - 17.3 1018.2 0.0
12/06:00pm E 3 4 - - - - 10 Cloudy - 18.7 1018.0 0.0
12/05:30pm ENE 3 5 - - - - 10 Cloudy - 19.7 1017.9 0.0
12/05:00pm E 4 6 - - - - 10 Partly cloudy - 20.1 1017.7 0.0
12/04:30pm ENE 5 8 - - - - 10 Partly cloudy - 20.2 1017.5 0.0
12/04:00pm E 6 9 - - - - 10 Partly cloudy - 20.7 1017.1 0.0
12/03:30pm E 5 7 - - - - 10 Partly cloudy - 21.2 1017.2 0.0
12/03:00pm E 5 9 - - - - 10 Cloudy - 21.2 1017.2 0.0
12/02:30pm E 5 8 - - - - 10 Partly cloudy - 21.2 1017.4 0.0
12/02:00pm ENE 8 11 - - - - 10 Partly cloudy - 21.8 1017.7 0.0
12/01:30pm E 6 10 - - - - 10 Partly cloudy - 21.1 1018.1 0.0
12/01:00pm ESE 5 7 - - - - 10 Partly cloudy - 21.5 1018.4 0.0
12/12:30pm SE 6 8 - - - - 10 Partly cloudy - 20.6 1018.8 0.0
12/12:00pm SE 6 9 - - - - 10 Cloudy - 20.6 1019.4 0.0
12/11:30am SE 6 10 - - - - 10 Partly cloudy - 20.8 1020.0 0.0
12/11:00am SE 7 10 - - - - 10 Partly cloudy - 19.9 1020.4 0.0
12/10:30am S 4 6 - - - - 10 Partly cloudy - 20.1 1020.7 0.0
12/10:00am SSE 5 7 - - - - 10 Partly cloudy - 18.6 1020.9 0.0
12/09:47am SE 5 8 - - - - 10 Partly cloudy - 18.4 1021.0 0.0
12/09:30am SE 5 8 - - - - 10 Partly cloudy - 17.9 1021.2 0.0
12/09:00am SE 5 8 - - - - 10 Cloudy - 17.1 1021.3 0.8
12/08:55am SSE 5 7 - - - - 10 Cloudy - 17.0 1021.2 0.8
12/08:30am SSE 6 9 - - - - 1 Cloudy - 16.3 1021.0 0.8
12/08:26am SSE 5 9 - - - - 1 Cloudy - 16.2 1020.9 0.8
12/08:09am SE 6 8 - - - - 0.9 Cloudy - 15.8 1020.6 0.8
12/08:00am SE 5 9 - - - - 6 Partly cloudy - 15.7 1020.6 0.8
12/07:55am SE 4 7 - - - - 10 Partly cloudy - 15.7 1020.6 0.8
12/07:30am S 1 3 - - - - 10 - - 14.3 1020.3 0.8
12/07:12am CALM 0 0 - - - - 10 Partly cloudy - 13.0 1020.0 0.8
12/07:08am CALM 0 0 - - - - 10 Partly cloudy - 12.5 1020.1 0.8
12/07:01am CALM 0 0 - - - - 7 Partly cloudy - 11.9 1020.0 0.8
12/07:00am CALM 0 0 - - - - 8 Partly cloudy - 11.8 1020.0 0.8
12/06:51am CALM 0 0 - - - - 10 Partly cloudy - 11.0 1019.8 0.8
12/06:30am CALM 0 0 - - - - 10 - - 10.4 1019.7 0.8
12/06:29am CALM 0 0 - - - - 10 - - 10.4 1019.7 0.8
12/06:03am S 1 3 - - - - 1 Partly cloudy - 11.0 1019.4 0.8
12/06:00am S 1 3 - - - - 0.5 Mostly clear - 11.1 1019.6 0.8
12/05:57am CALM 0 3 - - - - 0.8 Partly cloudy - 11.2 1019.7 0.8
12/05:52am CALM 0 0 - - - - 3 Partly cloudy - 11.2 1019.6 0.8
12/05:30am CALM 0 0 - - - - 10 - - 11.5 1019.4 0.8
12/05:10am CALM 0 0 - - - - 10 - - 11.6 1019.3 0.8
12/05:00am CALM 0 0 - - - - 5 - - 11.8 1019.2 0.8
12/04:42am CALM 0 0 - - - - 7 Partly cloudy - 12.7 1019.1 0.6
12/04:30am S 1 4 - - - - 10 Partly cloudy - 13.5 1019.2 0.6
12/04:00am CALM 0 3 - - - - 10 Cloudy - 14.2 1019.5 0.6
12/03:30am SW 3 4 - - - - 10 Cloudy - 14.6 1019.6 0.6
12/03:14am CALM 0 4 - - - - 10 Partly cloudy - 14.7 1019.7 0.6
12/03:00am ESE 4 6 - - - - 5 Cloudy Rain 14.3 1019.7 0.6
12/02:51am ESE 4 8 - - - - 7 Partly cloudy - 13.4 1020.0 0.6
12/02:30am CALM 0 0 - - - - 10 Partly cloudy - 10.9 1020.0 0.4
12/02:00am SSW 3 4 - - - - 10 Partly cloudy - 12.0 1020.6 0.4
12/01:30am CALM 0 0 - - - - 10 Partly cloudy - 11.8 1020.9 0.4
12/01:00am CALM 0 0 - - - - 10 - - 12.1 1021.0 0.4
12/12:30am CALM 0 0 - - - - 10 - - 12.0 1021.1 0.4
12/12:00am CALM 0 1 - - - - 10 - - 12.8 1021.5 0.4
 
Date/Time
EST
Wind Sea
Height
m
Swell Vis
km
Cloud Weather Temp
°C
Press
MSL
hPa
Rain since
9am
mm
Dir  Spd
kts
Gust
kts
Height
m
Period
s
Dir
11/11:30pm S 3 4 - - - - 10 - - 14.9 1021.8 0.4
11/11:00pm SSW 4 5 - - - - 10 - - 14.6 1022.2 0.4
11/10:30pm SE 3 4 - - - - 10 Partly cloudy - 13.8 1022.1 0.4
11/10:00pm SE 3 4 - - - - 10 Partly cloudy - 14.0 1022.1 0.4
11/09:30pm SSE 3 4 - - - - 10 - - 13.6 1022.3 0.4
11/09:00pm SSE 3 4 - - - - 10 - - 14.1 1022.2 0.4
11/08:30pm SSE 3 4 - - - - 10 - - 14.0 1022.4 0.4
11/08:00pm SSE 3 4 - - - - 10 - - 15.4 1022.1 0.4
11/07:30pm SSE 4 5 - - - - 10 - - 15.7 1021.8 0.4
11/07:00pm S 5 6 - - - - 10 - - 16.1 1021.4 0.4
11/06:30pm SSE 4 5 - - - - 10 - - 16.5 1021.0 0.4
11/06:00pm ESE 5 8 - - - - 10 Mostly clear - 17.4 1020.7 0.4
11/05:30pm ESE 6 9 - - - - 10 Cloudy - 18.3 1020.7 0.4
11/05:00pm ESE 7 11 - - - - 10 Partly cloudy - 18.8 1020.6 0.4
11/04:30pm ESE 7 11 - - - - 10 Partly cloudy - 19.1 1020.7 0.4
11/04:00pm ESE 7 12 - - - - 10 Partly cloudy - 19.2 1020.7 0.4
11/03:30pm ESE 8 13 - - - - 10 Partly cloudy - 19.3 1020.8 0.4
11/03:00pm SE 9 13 - - - - 10 Partly cloudy - 19.3 1020.8 0.4
11/02:30pm ESE 10 15 - - - - 10 Partly cloudy - 19.2 1020.9 0.4
11/02:00pm SE 9 15 - - - - 10 Partly cloudy - 19.1 1020.9 0.4
11/01:30pm ESE 10 15 - - - - 10 Partly cloudy - 19.4 1021.2 0.4
11/01:13pm SE 9 14 - - - - 10 Partly cloudy - 19.1 1021.5 0.4
11/01:00pm SE 9 14 - - - - 10 Partly cloudy - 19.4 1021.6 0.4
11/12:49pm SSE 9 14 - - - - 10 Partly cloudy - 19.8 1021.7 0.4
11/12:30pm SE 9 13 - - - - 10 Partly cloudy - 20.1 1022.1 0.2
11/12:00pm ESE 9 15 - - - - 10 Cloudy Rain 20.3 1022.2 0.2
11/11:54am SE 9 15 - - - - 10 Partly cloudy - 20.8 1022.3 0.2
11/11:30am SE 8 11 - - - - 10 Partly cloudy - 18.7 1022.7 0.2
11/11:00am SE 9 15 - - - - 10 Partly cloudy - 19.8 1022.9 0.2
11/10:30am SE 8 11 - - - - 10 Partly cloudy - 19.2 1022.8 0.2
11/10:00am SE 9 15 - - - - 10 Partly cloudy - 18.1 1022.7 0.0
11/09:30am ESE 7 10 - - - - 10 Cloudy - 18.3 1022.9 0.0
11/09:24am SE 6 9 - - - - 10 Partly cloudy - 18.3 1022.8 0.0
11/09:00am SE 8 12 - - - - 10 Cloudy - 18.1 1022.5 0.2
11/08:51am SE 7 11 - - - - 10 Partly cloudy - 18.0 1022.3 0.2
11/08:30am SSE 5 7 - - - - 10 Partly cloudy - 17.2 1021.9 0.2
11/08:23am SSE 6 9 - - - - 10 Partly cloudy - 16.9 1021.9 0.2
11/08:00am SSE 5 7 - - - - 10 Partly cloudy - 16.5 1021.7 0.2
11/07:30am S 5 7 - - - - 10 Partly cloudy - 15.9 1021.8 0.2
11/07:00am SE 8 11 - - - - 10 Partly cloudy - 16.1 1021.6 0.2
11/06:43am SE 4 6 - - - - 10 Partly cloudy - 15.5 1021.7 0.2
11/06:30am SSE 6 9 - - - - 10 Partly cloudy - 15.2 1021.5 0.2
11/06:00am SSE 5 7 - - - - 10 Cloudy - 15.1 1021.2 0.2
11/05:30am S 5 7 - - - - 10 Partly cloudy - 15.2 1021.0 0.2
11/05:00am SSE 7 9 - - - - 10 Partly cloudy - 15.9 1020.8 0.2
11/04:30am SE 4 7 - - - - 10 Partly cloudy - 15.2 1020.8 0.2
11/04:00am SE 4 7 - - - - 10 Partly cloudy - 14.1 1020.9 0.2
11/03:30am SSE 3 4 - - - - 10 Partly cloudy - 11.0 1021.1 0.2
11/03:00am SW 3 4 - - - - 10 Mostly clear - 11.1 1021.1 0.2
11/02:30am CALM 0 0 - - - - 10 Partly cloudy - 11.3 1021.1 0.2
11/02:00am SSE 3 4 - - - - 10 Partly cloudy - 12.3 1021.3 0.2
11/01:30am SE 3 4 - - - - 10 Partly cloudy - 14.0 1021.7 0.2
11/01:00am SE 5 7 - - - - 10 Partly cloudy - 15.1 1022.0 0.2
11/12:30am SE 5 7 - - - - 10 Partly cloudy - 14.0 1022.1 0.0
11/12:00am CALM 0 0 - - - - 10 Partly cloudy - 9.7 1022.1 0.0
 
Date/Time
EST
Wind Sea
Height
m
Swell Vis
km
Cloud Weather Temp
°C
Press
MSL
hPa
Rain since
9am
mm
Dir  Spd
kts
Gust
kts
Height
m
Period
s
Dir
10/11:30pm CALM 0 3 - - - - 10 - - 9.0 1022.4 0.0
10/11:00pm S 3 4 - - - - 10 - - 9.4 1022.7 0.0
10/10:30pm SW 3 4 - - - - 10 - - 9.5 1022.8 0.0
10/10:00pm WSW 4 4 - - - - 10 - - 9.7 1022.8 0.0
10/09:30pm S 1 3 - - - - 10 - - 10.1 1023.0 0.0
10/09:00pm CALM 0 0 - - - - 10 - - 10.4 1023.1 0.0
10/08:30pm S 2 3 - - - - 10 - - 10.9 1023.2 0.0
10/08:00pm SSE 3 4 - - - - 10 - - 11.6 1023.1 0.0
10/07:30pm SSE 3 4 - - - - 10 - - 12.5 1022.9 0.0
10/07:00pm SE 3 5 - - - - 10 - - 14.1 1022.6 0.0

Other formats

Comma delimited format used in spreadsheet applications
http://www.bom.gov.au/fwo/IDQ60701/IDQ60701.94370.axf

JavaScript Object Notation format (JSON) in row-major order
http://www.bom.gov.au/fwo/IDQ60701/IDQ60701.94370.json

Data quality

Most of these data are generated automatically and are frequently updated. Quality checks on data are not normally performed. It is possible for incorrect values to appear. Refer to information at About Latest Weather Observations and please check the disclaimer before using these data.